Time;durP1;ratioP1;P1;durP2;ratioP2;P2;SDS_P1;SDS_P2;PMS_P1;PMS_P2;Temp;Humidity;BMP_temperature;BMP_pressure;BME280_temperature;BME280_humidity;BME280_pressure;Samples;Min_cycle;Max_cycle;Signal;HPM_P1;HPM_P2
2023/12/06 00:00:24;;;;;;;14.50;5.10;;;1.10;99.90;;;;;;5081058;28;20505;-80
2023/12/06 00:02:50;;;;;;;13.93;6.10;;;1.10;99.90;;;;;;5082598;28;20096;-80
2023/12/06 00:05:15;;;;;;;11.73;4.97;;;1.10;99.90;;;;;;5089404;28;20075;-80
2023/12/06 00:07:41;;;;;;;11.13;5.55;;;1.00;99.90;;;;;;5101239;28;20032;-80
2023/12/06 00:10:07;;;;;;;10.88;6.25;;;1.10;99.90;;;;;;5098261;28;20043;-80
2023/12/06 00:12:33;;;;;;;14.85;5.60;;;1.00;99.90;;;;;;5101453;28;20036;-79
2023/12/06 00:14:59;;;;;;;11.93;6.30;;;1.00;99.90;;;;;;5079175;28;20048;-80
2023/12/06 00:17:24;;;;;;;9.60;4.93;;;1.10;99.90;;;;;;5077944;28;20035;-79
2023/12/06 00:19:50;;;;;;;17.65;6.03;;;1.10;99.90;;;;;;5100467;28;20028;-80
2023/12/06 00:22:16;;;;;;;9.38;6.22;;;1.10;99.90;;;;;;5071131;28;20709;-80
2023/12/06 00:24:41;;;;;;;12.13;6.30;;;1.10;99.90;;;;;;5090208;28;20032;-80
2023/12/06 00:27:07;;;;;;;10.68;5.90;;;1.10;99.90;;;;;;5102478;28;20044;-79
2023/12/06 00:29:32;;;;;;;12.80;5.68;;;1.10;99.90;;;;;;5072136;28;20044;-80
2023/12/06 00:31:58;;;;;;;12.55;6.75;;;1.10;99.90;;;;;;5086329;28;20048;-80
2023/12/06 00:34:24;;;;;;;13.90;6.10;;;1.10;99.90;;;;;;5070787;28;20040;-80
2023/12/06 00:36:49;;;;;;;13.10;4.93;;;1.10;99.90;;;;;;5075938;28;20226;-80
2023/12/06 00:39:15;;;;;;;9.77;5.88;;;1.10;99.90;;;;;;5077862;28;20027;-80
2023/12/06 00:41:41;;;;;;;11.60;6.45;;;1.10;99.90;;;;;;5102295;28;20475;-80
2023/12/06 00:44:07;;;;;;;10.05;5.55;;;1.10;99.90;;;;;;5101532;28;20039;-80
2023/12/06 00:46:33;;;;;;;13.57;6.45;;;1.10;99.90;;;;;;5066298;28;20040;-80
2023/12/06 00:49:00;;;;;;;11.98;6.35;;;1.10;99.90;;;;;;5084115;28;20074;-80
2023/12/06 00:51:27;;;;;;;14.20;5.80;;;1.10;99.90;;;;;;5073182;28;20032;-79
2023/12/06 00:53:52;;;;;;;10.32;5.07;;;1.10;99.90;;;;;;5073870;28;20517;-80
2023/12/06 00:56:18;;;;;;;18.67;6.75;;;1.10;99.90;;;;;;5080753;28;20374;-80
2023/12/06 00:58:44;;;;;;;11.95;6.03;;;1.10;99.90;;;;;;5095997;28;20154;-80
2023/12/06 01:01:11;;;;;;;11.55;5.68;;;1.20;99.90;;;;;;5083870;28;20031;-80
2023/12/06 01:03:38;;;;;;;12.73;6.25;;;1.20;99.90;;;;;;5090456;28;20107;-80
2023/12/06 01:06:04;;;;;;;17.95;6.28;;;1.20;99.90;;;;;;5090284;28;20107;-80
2023/12/06 01:08:31;;;;;;;12.73;5.50;;;1.10;99.90;;;;;;5077361;28;20117;-80
2023/12/06 01:10:56;;;;;;;18.88;6.75;;;1.10;99.90;;;;;;5081245;28;20047;-80
2023/12/06 01:13:22;;;;;;;14.18;6.93;;;1.10;99.90;;;;;;5079872;28;20534;-80
2023/12/06 01:15:48;;;;;;;12.10;5.63;;;1.20;99.90;;;;;;5078179;28;20040;-80
2023/12/06 01:18:13;;;;;;;12.93;6.18;;;1.20;99.90;;;;;;5102116;28;20505;-80
2023/12/06 01:20:39;;;;;;;13.38;6.95;;;1.20;99.90;;;;;;5099095;28;20036;-80
2023/12/06 01:23:06;;;;;;;11.30;5.45;;;1.20;99.90;;;;;;5076919;28;20031;-80
2023/12/06 01:25:34;;;;;;;12.13;5.70;;;1.20;99.90;;;;;;5072912;28;20450;-80
2023/12/06 01:28:00;;;;;;;17.83;7.10;;;1.20;99.90;;;;;;5073271;28;20073;-80
2023/12/06 01:30:26;;;;;;;12.65;5.97;;;1.20;99.90;;;;;;5084684;28;20047;-80
2023/12/06 01:32:51;;;;;;;12.95;4.60;;;1.10;99.90;;;;;;5086794;28;20040;-80
2023/12/06 01:35:17;;;;;;;14.23;6.15;;;1.20;99.90;;;;;;5103441;28;20410;-80
2023/12/06 01:37:43;;;;;;;19.75;7.25;;;1.20;99.90;;;;;;5094228;28;20036;-80
2023/12/06 01:40:09;;;;;;;16.33;6.53;;;1.20;99.90;;;;;;5087363;28;20245;-80
2023/12/06 01:42:35;;;;;;;13.10;4.45;;;1.20;99.90;;;;;;5114722;28;20032;-80
2023/12/06 01:45:01;;;;;;;15.18;7.55;;;1.20;99.90;;;;;;5080083;28;20454;-80
2023/12/06 01:47:28;;;;;;;15.30;7.45;;;1.20;99.90;;;;;;5100047;28;20062;-80
2023/12/06 01:49:55;;;;;;;10.18;6.53;;;1.20;99.90;;;;;;5092470;28;20442;-80
2023/12/06 01:52:21;;;;;;;13.00;6.93;;;1.20;99.90;;;;;;5080065;28;20036;-80
2023/12/06 01:54:48;;;;;;;18.15;6.57;;;1.20;99.90;;;;;;5090832;28;20035;-80
2023/12/06 01:57:14;;;;;;;8.88;5.30;;;1.20;99.90;;;;;;5097179;28;20406;-80
2023/12/06 01:59:40;;;;;;;13.05;5.40;;;1.20;99.90;;;;;;5089635;28;20040;-80
2023/12/06 02:02:06;;;;;;;16.25;7.32;;;1.20;99.90;;;;;;5089387;28;20177;-80
2023/12/06 02:04:33;;;;;;;13.43;4.47;;;1.20;99.90;;;;;;5088494;28;20405;-80
2023/12/06 02:06:59;;;;;;;12.50;4.70;;;1.20;99.90;;;;;;5087830;28;20054;-80
2023/12/06 02:09:26;;;;;;;14.65;7.68;;;1.20;99.90;;;;;;5077656;28;20047;-80
2023/12/06 02:11:52;;;;;;;17.38;6.95;;;1.20;99.90;;;;;;5078645;28;20038;-80
2023/12/06 02:14:18;;;;;;;14.35;6.50;;;1.20;99.90;;;;;;5100847;28;20109;-80
2023/12/06 02:16:44;;;;;;;19.50;8.88;;;1.20;99.90;;;;;;5100020;28;20131;-80
2023/12/06 02:19:16;;;;;;;11.15;6.18;;;1.30;99.90;;;;;;5098086;28;21683;-80
2023/12/06 02:21:43;;;;;;;13.55;5.43;;;1.20;99.90;;;;;;5104193;27;20397;-80
2023/12/06 02:24:11;;;;;;;15.15;7.57;;;1.30;99.90;;;;;;5075924;28;20047;-80
2023/12/06 02:26:36;;;;;;;14.10;6.45;;;1.30;99.90;;;;;;5099048;28;20162;-80
2023/12/06 02:29:02;;;;;;;17.38;6.90;;;1.20;99.90;;;;;;5095886;28;20119;-80
2023/12/06 02:31:29;;;;;;;16.40;6.80;;;1.30;99.90;;;;;;5082573;28;20090;-80
2023/12/06 02:33:54;;;;;;;10.10;5.55;;;1.20;99.90;;;;;;5070341;28;20032;-80
2023/12/06 02:36:22;;;;;;;20.20;7.13;;;1.20;99.90;;;;;;5093971;28;20091;-81
2023/12/06 02:38:48;;;;;;;17.20;7.80;;;1.20;99.90;;;;;;5073067;28;20567;-81
2023/12/06 02:41:18;;;;;;;23.83;7.65;;;1.20;99.90;;;;;;5085171;28;20131;-80
2023/12/06 02:43:45;;;;;;;15.80;7.55;;;1.20;99.90;;;;;;5104540;28;20072;-81
2023/12/06 02:46:12;;;;;;;12.90;7.32;;;1.30;99.90;;;;;;5101591;28;20069;-81
2023/12/06 02:48:37;;;;;;;12.95;6.05;;;1.20;99.90;;;;;;5092877;28;20083;-80
2023/12/06 02:51:03;;;;;;;14.02;5.78;;;1.20;99.90;;;;;;5076259;28;20508;-81
2023/12/06 02:53:29;;;;;;;18.13;7.30;;;1.20;99.90;;;;;;5075533;28;20051;-81
2023/12/06 02:55:54;;;;;;;15.85;5.78;;;1.20;99.90;;;;;;5076971;28;20040;-81
2023/12/06 02:58:20;;;;;;;9.95;5.35;;;1.20;99.90;;;;;;5098777;28;20102;-81
2023/12/06 03:00:46;;;;;;;12.25;4.85;;;1.20;99.90;;;;;;5104381;28;20043;-81
2023/12/06 03:03:11;;;;;;;14.65;6.65;;;1.20;99.90;;;;;;5096559;28;20032;-81
2023/12/06 03:05:37;;;;;;;14.77;6.18;;;1.20;99.90;;;;;;5093984;28;20032;-81
2023/12/06 03:08:03;;;;;;;9.45;4.18;;;1.20;99.90;;;;;;5082218;28;20389;-81
2023/12/06 03:10:29;;;;;;;15.52;6.53;;;1.20;99.90;;;;;;5092372;28;20032;-81
2023/12/06 03:12:54;;;;;;;11.43;5.75;;;1.20;99.90;;;;;;5080050;28;20132;-81
2023/12/06 03:15:20;;;;;;;14.52;6.15;;;1.20;99.90;;;;;;5078670;28;20192;-81
2023/12/06 03:17:45;;;;;;;11.27;5.28;;;1.20;99.90;;;;;;5101923;28;20130;-81
2023/12/06 03:20:12;;;;;;;10.75;6.45;;;1.30;99.90;;;;;;5096051;28;20477;-81
2023/12/06 03:22:38;;;;;;;9.25;4.45;;;1.30;99.90;;;;;;5098882;28;20046;-81
2023/12/06 03:25:05;;;;;;;7.22;4.03;;;1.30;99.90;;;;;;5098032;28;20035;-81
2023/12/06 03:27:31;;;;;;;8.05;4.63;;;1.30;99.90;;;;;;5102086;28;20040;-81
2023/12/06 03:29:56;;;;;;;8.52;5.00;;;1.20;99.90;;;;;;5099103;28;20035;-81
2023/12/06 03:32:23;;;;;;;7.30;4.90;;;1.30;99.90;;;;;;5101394;28;20039;-81
2023/12/06 03:34:49;;;;;;;10.48;5.07;;;1.20;99.90;;;;;;5081349;28;20044;-81
2023/12/06 03:37:14;;;;;;;12.88;6.18;;;1.30;99.90;;;;;;5093407;28;20051;-81
2023/12/06 03:39:40;;;;;;;8.52;4.53;;;1.20;99.90;;;;;;5089418;28;20469;-81
2023/12/06 03:42:06;;;;;;;9.30;3.85;;;1.20;99.90;;;;;;5098691;28;20024;-81
2023/12/06 03:44:31;;;;;;;10.75;4.63;;;1.20;99.90;;;;;;5080466;28;20023;-81
2023/12/06 03:46:57;;;;;;;8.52;4.95;;;1.30;99.90;;;;;;5101691;28;20082;-81
2023/12/06 03:49:23;;;;;;;11.85;4.50;;;1.30;99.90;;;;;;5095297;28;20181;-81
2023/12/06 03:51:49;;;;;;;4.13;3.38;;;1.30;99.90;;;;;;5078729;28;20504;-81
2023/12/06 03:54:16;;;;;;;8.75;4.45;;;1.30;99.90;;;;;;5093485;28;20031;-81
2023/12/06 03:56:42;;;;;;;6.18;4.13;;;1.30;99.90;;;;;;5083459;28;20350;-81
2023/12/06 03:59:07;;;;;;;8.75;5.82;;;1.20;99.90;;;;;;5091843;28;20549;-81
2023/12/06 04:01:33;;;;;;;11.30;4.60;;;1.20;99.90;;;;;;5097382;28;20509;-81
2023/12/06 04:03:59;;;;;;;8.95;4.28;;;1.30;99.90;;;;;;5094432;28;20106;-81
2023/12/06 04:06:25;;;;;;;8.68;4.60;;;1.20;99.90;;;;;;5081911;28;20046;-81
2023/12/06 04:08:50;;;;;;;8.18;4.53;;;1.30;99.90;;;;;;5073586;28;20063;-81
2023/12/06 04:11:16;;;;;;;8.13;3.85;;;1.20;99.90;;;;;;5093706;28;20035;-81
2023/12/06 04:13:41;;;;;;;5.85;3.47;;;1.30;99.90;;;;;;5081269;28;20513;-81
2023/12/06 04:16:07;;;;;;;11.68;5.50;;;1.30;99.90;;;;;;5091725;28;20040;-81
2023/12/06 04:18:33;;;;;;;7.90;4.10;;;1.30;99.90;;;;;;5091167;28;20409;-81
2023/12/06 04:20:59;;;;;;;13.02;4.72;;;1.30;99.90;;;;;;5101512;28;20027;-80
2023/12/06 04:23:25;;;;;;;7.85;5.50;;;1.30;99.90;;;;;;5081967;28;20039;-81
2023/12/06 04:25:50;;;;;;;10.13;5.20;;;1.40;99.90;;;;;;5075520;28;20032;-80
2023/12/06 04:28:16;;;;;;;13.02;6.50;;;1.30;99.90;;;;;;5093342;28;20050;-80
2023/12/06 04:30:41;;;;;;;11.18;4.03;;;1.30;99.90;;;;;;5074162;28;20039;-80
2023/12/06 04:33:07;;;;;;;6.97;3.90;;;1.30;99.90;;;;;;5105383;28;20039;-80
2023/12/06 04:35:33;;;;;;;9.93;5.25;;;1.30;99.90;;;;;;5090616;28;20405;-80
2023/12/06 04:37:58;;;;;;;8.20;4.72;;;1.30;99.90;;;;;;5073285;28;20556;-80
2023/12/06 04:40:24;;;;;;;10.50;5.20;;;1.30;99.90;;;;;;5095154;28;20686;-81
2023/12/06 04:42:50;;;;;;;9.43;3.75;;;1.30;99.90;;;;;;5085598;28;20459;-80
2023/12/06 04:45:15;;;;;;;6.03;3.38;;;1.30;99.90;;;;;;5081277;28;20028;-80
2023/12/06 04:47:41;;;;;;;6.97;3.72;;;1.30;99.90;;;;;;5101362;28;20072;-80
2023/12/06 04:50:08;;;;;;;11.95;4.75;;;1.30;99.90;;;;;;5073713;28;20032;-81
2023/12/06 04:52:34;;;;;;;9.68;4.13;;;1.30;99.90;;;;;;5078741;28;20508;-80
2023/12/06 04:55:04;;;;;;;9.77;5.22;;;1.30;99.90;;;;;;5086852;28;20052;-80
2023/12/06 04:57:30;;;;;;;10.10;5.28;;;1.30;99.90;;;;;;5100042;28;20069;-80
2023/12/06 04:59:55;;;;;;;8.00;4.40;;;1.40;99.90;;;;;;5091510;28;20047;-80
2023/12/06 05:02:21;;;;;;;5.05;2.38;;;1.40;99.90;;;;;;5077403;28;20035;-80
2023/12/06 05:04:47;;;;;;;11.85;4.53;;;1.40;99.90;;;;;;5076817;28;20031;-80
2023/12/06 05:07:12;;;;;;;4.72;2.63;;;1.40;99.90;;;;;;5093379;28;20130;-81
2023/12/06 05:09:38;;;;;;;11.82;5.10;;;1.40;99.90;;;;;;5079076;28;20042;-80
2023/12/06 05:12:04;;;;;;;12.18;3.72;;;1.40;99.90;;;;;;5089837;28;20055;-80
2023/12/06 05:14:30;;;;;;;9.45;4.63;;;1.40;99.90;;;;;;5080497;28;20036;-81
2023/12/06 05:16:55;;;;;;;7.55;3.88;;;1.40;99.90;;;;;;5098137;28;20040;-81
2023/12/06 05:19:21;;;;;;;8.27;4.40;;;1.40;99.90;;;;;;5074871;28;20032;-80
2023/12/06 05:21:47;;;;;;;10.18;5.05;;;1.40;99.90;;;;;;5090212;28;20072;-80
2023/12/06 05:24:12;;;;;;;6.90;4.25;;;1.40;99.90;;;;;;5096688;28;20425;-80
2023/12/06 05:26:39;;;;;;;5.05;3.15;;;1.40;99.90;;;;;;5083046;28;20039;-80
2023/12/06 05:29:04;;;;;;;6.85;3.97;;;1.40;99.90;;;;;;5078052;28;20024;-80
2023/12/06 05:31:30;;;;;;;7.07;4.07;;;1.40;99.90;;;;;;5098796;28;20039;-80
2023/12/06 05:33:56;;;;;;;8.05;4.35;;;1.40;99.90;;;;;;5098594;28;20043;-81
2023/12/06 05:36:22;;;;;;;9.57;4.30;;;1.40;99.90;;;;;;5098189;28;20036;-80
2023/12/06 05:38:47;;;;;;;6.50;4.85;;;1.40;99.90;;;;;;5092175;28;20059;-80
2023/12/06 05:41:13;;;;;;;9.88;3.90;;;1.40;99.90;;;;;;5088043;28;20033;-80
2023/12/06 05:43:39;;;;;;;7.78;4.32;;;1.40;99.90;;;;;;5088302;28;20573;-80
2023/12/06 05:46:06;;;;;;;7.43;3.88;;;1.50;99.90;;;;;;5081978;28;20237;-80
2023/12/06 05:48:32;;;;;;;5.18;2.72;;;1.40;99.90;;;;;;5084965;28;20040;-80
2023/12/06 05:50:57;;;;;;;7.55;3.78;;;1.50;99.90;;;;;;5083654;28;20521;-80
2023/12/06 05:53:23;;;;;;;7.45;3.90;;;1.50;99.90;;;;;;5080151;28;20792;-80
2023/12/06 05:55:49;;;;;;;6.07;2.67;;;1.50;99.90;;;;;;5085685;28;20560;-80
2023/12/06 05:58:14;;;;;;;7.53;3.67;;;1.50;99.90;;;;;;5083292;28;20039;-81
2023/12/06 06:00:40;;;;;;;9.23;3.75;;;1.50;99.90;;;;;;5093323;28;20112;-80
2023/12/06 06:03:06;;;;;;;5.47;2.90;;;1.50;99.90;;;;;;5079420;28;20153;-80
2023/12/06 06:05:31;;;;;;;4.95;2.47;;;1.50;99.90;;;;;;5104645;28;20032;-79
2023/12/06 06:07:59;;;;;;;5.03;3.22;;;1.50;99.90;;;;;;5092900;28;21208;-80
2023/12/06 06:10:25;;;;;;;8.32;3.97;;;1.50;99.90;;;;;;5102071;28;20432;-80
2023/12/06 06:12:51;;;;;;;4.50;2.83;;;1.50;99.90;;;;;;5086445;28;20374;-80
2023/12/06 06:15:17;;;;;;;9.25;5.03;;;1.60;99.90;;;;;;5085129;28;20078;-80
2023/12/06 06:17:43;;;;;;;7.28;3.25;;;1.60;99.90;;;;;;5084304;28;20404;-80
2023/12/06 06:20:10;;;;;;;5.47;3.63;;;1.60;99.90;;;;;;5096621;28;20050;-80
2023/12/06 06:22:36;;;;;;;5.43;3.70;;;1.60;99.90;;;;;;5079619;28;20058;-80
2023/12/06 06:25:01;;;;;;;3.33;2.40;;;1.60;99.90;;;;;;5107808;28;20048;-80
2023/12/06 06:27:27;;;;;;;8.80;4.88;;;1.50;99.90;;;;;;5108820;28;20566;-80
2023/12/06 06:29:53;;;;;;;5.60;4.25;;;1.60;99.90;;;;;;5097283;28;20050;-80
2023/12/06 06:32:18;;;;;;;7.68;3.13;;;1.60;99.90;;;;;;5091713;28;20151;-80
2023/12/06 06:34:44;;;;;;;8.10;4.38;;;1.60;99.90;;;;;;5087023;28;20497;-80
2023/12/06 06:37:10;;;;;;;7.85;4.13;;;1.60;99.90;;;;;;5071032;28;20069;-80
2023/12/06 06:39:35;;;;;;;5.93;3.75;;;1.60;99.90;;;;;;5099194;28;20051;-80
2023/12/06 06:42:01;;;;;;;7.85;3.95;;;1.60;99.90;;;;;;5100683;28;20024;-80
2023/12/06 06:44:29;;;;;;;8.48;4.07;;;1.60;99.90;;;;;;5075364;28;20047;-80
2023/12/06 06:46:55;;;;;;;8.13;3.95;;;1.60;99.90;;;;;;5106641;28;20048;-80
2023/12/06 06:49:21;;;;;;;8.20;4.00;;;1.60;99.90;;;;;;5090190;28;20036;-80
2023/12/06 06:51:46;;;;;;;7.85;4.03;;;1.70;99.90;;;;;;5087124;28;20040;-80
2023/12/06 06:54:12;;;;;;;7.25;3.33;;;1.60;99.90;;;;;;5061102;28;20035;-79
2023/12/06 06:56:38;;;;;;;4.95;3.17;;;1.60;99.90;;;;;;5091321;28;20398;-80
2023/12/06 06:59:03;;;;;;;10.13;4.22;;;1.70;99.90;;;;;;5099940;28;20482;-80
2023/12/06 07:01:29;;;;;;;6.40;3.58;;;1.70;99.90;;;;;;5073186;28;20079;-80
2023/12/06 07:03:55;;;;;;;9.02;3.40;;;1.70;99.90;;;;;;5096693;28;20075;-80
2023/12/06 07:06:20;;;;;;;4.50;3.35;;;1.60;99.90;;;;;;5098712;28;20043;-80
2023/12/06 07:08:47;;;;;;;6.65;3.60;;;1.70;99.90;;;;;;5084597;28;20037;-80
2023/12/06 07:11:13;;;;;;;9.05;5.25;;;1.70;99.90;;;;;;5081759;28;20131;-80
2023/12/06 07:13:39;;;;;;;6.10;3.08;;;1.70;99.90;;;;;;5072737;28;20123;-80
2023/12/06 07:16:05;;;;;;;8.60;3.83;;;1.70;99.90;;;;;;5072152;28;20052;-79
2023/12/06 07:18:33;;;;;;;8.27;3.78;;;1.70;99.90;;;;;;5080708;28;20080;-79
2023/12/06 07:20:59;;;;;;;10.68;3.67;;;1.70;99.90;;;;;;5101154;28;20050;-79
2023/12/06 07:23:25;;;;;;;6.95;3.13;;;1.70;99.90;;;;;;5092821;28;20032;-82
2023/12/06 07:25:53;;;;;;;7.93;3.13;;;1.70;99.90;;;;;;5069913;28;20429;-80
2023/12/06 07:28:19;;;;;;;8.23;3.90;;;1.70;99.90;;;;;;5064470;28;20202;-80
2023/12/06 07:30:44;;;;;;;6.13;2.90;;;1.70;99.90;;;;;;5097270;28;21233;-80
2023/12/06 07:33:10;;;;;;;6.75;4.10;;;1.70;99.90;;;;;;5076663;28;20482;-80
2023/12/06 07:35:36;;;;;;;5.40;3.13;;;1.70;99.90;;;;;;5079360;28;20123;-80
2023/12/06 07:38:02;;;;;;;5.90;3.30;;;1.70;99.90;;;;;;5082871;28;20068;-80
2023/12/06 07:40:28;;;;;;;9.13;4.10;;;1.80;99.90;;;;;;5092869;28;20041;-80
2023/12/06 07:42:54;;;;;;;7.13;4.00;;;1.70;99.90;;;;;;5071121;28;20090;-80
2023/12/06 07:45:21;;;;;;;12.73;5.30;;;1.70;99.90;;;;;;5091899;28;20051;-80
2023/12/06 07:47:47;;;;;;;8.93;3.42;;;1.80;99.90;;;;;;5086193;28;20055;-80
2023/12/06 07:50:13;;;;;;;9.30;3.42;;;1.80;99.90;;;;;;5083734;28;20047;-80
2023/12/06 07:52:39;;;;;;;7.13;2.95;;;1.80;99.90;;;;;;5101231;28;20044;-79
2023/12/06 07:55:06;;;;;;;6.13;3.70;;;1.80;99.90;;;;;;5076887;28;20465;-79
2023/12/06 07:57:36;;;;;;;7.18;3.67;;;1.80;99.90;;;;;;5069224;28;20075;-80
2023/12/06 08:00:02;;;;;;;8.25;3.60;;;1.80;99.90;;;;;;5079386;28;20038;-80
2023/12/06 08:02:28;;;;;;;5.90;3.58;;;1.80;99.90;;;;;;5074881;28;20084;-80
2023/12/06 08:04:54;;;;;;;6.95;3.63;;;1.80;99.90;;;;;;5075399;28;20024;-80
2023/12/06 08:07:20;;;;;;;4.47;2.72;;;1.80;99.90;;;;;;5088983;28;20096;-79
2023/12/06 08:09:46;;;;;;;12.68;3.47;;;1.90;99.90;;;;;;5076288;28;20043;-79
2023/12/06 08:12:11;;;;;;;8.95;4.53;;;1.80;99.90;;;;;;5074119;28;20052;-82
2023/12/06 08:14:40;;;;;;;6.43;3.10;;;1.90;99.90;;;;;;5089599;28;20032;-79
2023/12/06 08:17:06;;;;;;;9.40;4.13;;;1.90;99.90;;;;;;5084848;28;20069;-79
2023/12/06 08:19:31;;;;;;;8.93;4.10;;;1.90;99.90;;;;;;5071249;28;20034;-79
2023/12/06 08:21:57;;;;;;;4.05;2.78;;;1.80;99.90;;;;;;5095503;28;20501;-79
2023/12/06 08:24:23;;;;;;;14.88;4.10;;;1.90;99.90;;;;;;5095179;28;20082;-79
2023/12/06 08:26:49;;;;;;;5.90;3.22;;;1.90;99.90;;;;;;5061499;28;20055;-79
2023/12/06 08:29:15;;;;;;;7.00;3.45;;;1.80;99.90;;;;;;5066444;28;20047;-79
2023/12/06 08:31:42;;;;;;;9.23;3.20;;;1.90;99.90;;;;;;5087997;28;20476;-79
2023/12/06 08:34:08;;;;;;;4.55;3.25;;;1.90;99.90;;;;;;5081268;28;20032;-80
2023/12/06 08:36:33;;;;;;;5.97;3.30;;;1.90;99.90;;;;;;5086141;28;20039;-79
2023/12/06 08:38:59;;;;;;;6.22;3.13;;;2.00;99.90;;;;;;5089085;28;20071;-79
2023/12/06 08:41:24;;;;;;;4.95;2.85;;;1.90;99.90;;;;;;5069193;28;20066;-79
2023/12/06 08:43:50;;;;;;;6.82;3.85;;;1.90;99.90;;;;;;5096518;28;20438;-80
2023/12/06 08:46:16;;;;;;;3.00;2.30;;;2.00;99.90;;;;;;5080130;28;20065;-82
2023/12/06 08:48:41;;;;;;;7.68;3.38;;;1.90;99.90;;;;;;5092453;28;20502;-79
2023/12/06 08:51:08;;;;;;;4.35;2.53;;;2.00;99.90;;;;;;5087735;28;20043;-79
2023/12/06 08:53:35;;;;;;;5.75;2.70;;;2.00;99.90;;;;;;5078401;28;20531;-79
2023/12/06 08:56:00;;;;;;;6.95;4.28;;;2.00;99.90;;;;;;5069588;28;20550;-79
2023/12/06 08:58:27;;;;;;;7.18;3.83;;;2.00;99.90;;;;;;5076876;28;20036;-78
2023/12/06 09:00:53;;;;;;;6.00;3.13;;;2.00;99.90;;;;;;5086529;28;20028;-79
2023/12/06 09:03:19;;;;;;;5.38;3.30;;;2.00;99.90;;;;;;5099305;28;20065;-79
2023/12/06 09:05:44;;;;;;;7.90;4.07;;;2.00;99.90;;;;;;5066750;28;20036;-79
2023/12/06 09:08:11;;;;;;;6.43;3.67;;;2.00;99.90;;;;;;5098255;28;20168;-79
2023/12/06 09:10:39;;;;;;;9.38;3.45;;;2.10;99.90;;;;;;5075682;28;20036;-79
2023/12/06 09:13:04;;;;;;;5.10;2.45;;;2.10;99.90;;;;;;5066325;28;20075;-79
2023/12/06 09:15:30;;;;;;;9.52;4.78;;;2.10;99.90;;;;;;5096185;28;20067;-79
2023/12/06 09:17:55;;;;;;;5.72;3.78;;;2.10;99.90;;;;;;5091199;28;20036;-79
2023/12/06 09:20:21;;;;;;;5.22;2.63;;;2.10;99.90;;;;;;5097026;28;20079;-79
2023/12/06 09:22:47;;;;;;;5.63;3.28;;;2.10;99.90;;;;;;5069631;28;20107;-78
2023/12/06 09:25:13;;;;;;;5.30;3.28;;;2.10;99.90;;;;;;5088628;28;20047;-79
2023/12/06 09:27:38;;;;;;;3.58;2.47;;;2.10;99.90;;;;;;5070687;28;20496;-79
2023/12/06 09:30:05;;;;;;;3.95;2.17;;;2.10;99.90;;;;;;5080881;28;20095;-80
2023/12/06 09:32:31;;;;;;;7.60;4.32;;;2.10;99.90;;;;;;5085056;28;20075;-79
2023/12/06 09:34:56;;;;;;;7.05;3.25;;;2.10;99.90;;;;;;5068054;28;20766;-79
2023/12/06 09:37:22;;;;;;;6.65;2.78;;;2.10;99.90;;;;;;5096508;28;20036;-80
2023/12/06 09:39:48;;;;;;;4.50;2.72;;;2.10;99.90;;;;;;5084722;28;20172;-80
2023/12/06 09:42:13;;;;;;;6.20;3.38;;;2.10;99.90;;;;;;5085677;28;20040;-79
2023/12/06 09:44:41;;;;;;;5.15;2.58;;;2.20;99.90;;;;;;5083558;28;20043;-80
2023/12/06 09:47:07;;;;;;;5.45;3.28;;;2.20;99.90;;;;;;5063821;28;20043;-79
2023/12/06 09:49:33;;;;;;;7.18;3.60;;;2.20;99.90;;;;;;5082818;28;20036;-79
2023/12/06 09:52:10;;;;;;;13.27;5.18;;;2.20;99.90;;;;;;5081831;28;20149;-79
2023/12/06 09:54:47;;;;;;;12.70;3.95;;;2.20;99.90;;;;;;5070007;28;20104;-79
2023/12/06 09:57:13;;;;;;;7.50;4.13;;;2.20;99.90;;;;;;5070578;28;20032;-79
2023/12/06 09:59:40;;;;;;;9.02;3.60;;;2.20;99.90;;;;;;5107387;27;20140;-80
2023/12/06 10:02:06;;;;;;;8.82;4.32;;;2.30;99.90;;;;;;5071203;28;20024;-78
2023/12/06 10:04:33;;;;;;;7.35;3.75;;;2.30;99.90;;;;;;5100717;28;20036;-79
2023/12/06 10:07:00;;;;;;;6.47;3.40;;;2.30;99.90;;;;;;5073622;28;20393;-79
2023/12/06 10:09:25;;;;;;;3.88;2.38;;;2.30;99.90;;;;;;5069618;28;20039;-79
2023/12/06 10:11:51;;;;;;;5.68;2.67;;;2.30;99.90;;;;;;5092718;28;20028;-80
2023/12/06 10:14:20;;;;;;;4.35;2.53;;;2.40;99.90;;;;;;5070912;28;20077;-79
2023/12/06 10:16:49;;;;;;;6.28;3.58;;;2.30;99.90;;;;;;5088332;28;20573;-79
2023/12/06 10:19:23;;;;;;;5.45;3.70;;;2.30;99.90;;;;;;5086231;28;20036;-80
2023/12/06 10:21:50;;;;;;;5.85;2.83;;;2.30;99.90;;;;;;5084946;28;20047;-79
2023/12/06 10:24:15;;;;;;;4.80;3.15;;;2.30;99.90;;;;;;5078131;28;20654;-81
2023/12/06 10:26:41;;;;;;;6.28;3.40;;;2.30;99.90;;;;;;5078735;28;20052;-80
2023/12/06 10:29:07;;;;;;;6.82;2.78;;;2.30;99.90;;;;;;5081838;28;20401;-78
2023/12/06 10:31:42;;;;;;;5.47;4.45;;;2.40;99.90;;;;;;5085308;28;20434;-81
2023/12/06 10:34:08;;;;;;;7.13;3.53;;;2.40;99.90;;;;;;5088617;28;20493;-82
2023/12/06 10:36:35;;;;;;;4.22;2.33;;;2.30;99.90;;;;;;5101080;28;20050;-79
2023/12/06 10:39:02;;;;;;;5.82;3.85;;;2.40;99.90;;;;;;5088165;28;20024;-80
2023/12/06 10:41:32;;;;;;;5.43;4.03;;;2.40;99.90;;;;;;5107792;28;20043;-79
2023/12/06 10:44:01;;;;;;;7.35;3.85;;;2.40;99.90;;;;;;5079691;28;20029;-79
2023/12/06 10:46:27;;;;;;;7.45;3.65;;;2.40;99.90;;;;;;5068538;28;20040;-79
2023/12/06 10:48:54;;;;;;;4.75;3.42;;;2.40;99.90;;;;;;5095657;28;20040;-80
2023/12/06 10:51:20;;;;;;;5.10;3.15;;;2.40;99.90;;;;;;5072902;28;20067;-79
2023/12/06 10:53:46;;;;;;;5.78;2.95;;;2.40;99.90;;;;;;5091409;28;20043;-79
2023/12/06 10:56:15;;;;;;;4.50;2.65;;;2.50;99.90;;;;;;5102176;28;21459;-79
2023/12/06 10:58:41;;;;;;;10.70;4.53;;;2.40;99.90;;;;;;5098299;28;20040;-79
2023/12/06 11:01:08;;;;;;;5.05;2.97;;;2.40;99.90;;;;;;5075467;28;20043;-80
2023/12/06 11:03:35;;;;;;;6.50;3.80;;;2.50;99.90;;;;;;5063000;28;20043;-80
2023/12/06 11:06:13;;;;;;;4.72;3.10;;;2.40;99.90;;;;;;5092287;28;20094;-80
2023/12/06 11:09:08;;;;;;;5.85;2.78;;;2.50;99.90;;;;;;5087949;28;20047;-80
2023/12/06 11:12:01;;;;;;;5.28;2.92;;;2.50;99.90;;;;;;5033301;28;20053;-80
2023/12/06 11:15:00;;;;;;;7.13;3.58;;;2.50;99.90;;;;;;5073374;28;20675;-80
2023/12/06 11:17:54;;;;;;;6.50;3.38;;;2.50;99.90;;;;;;5063079;28;20036;-80
2023/12/06 11:20:20;;;;;;;6.00;2.85;;;2.50;99.90;;;;;;5085745;28;20078;-79
2023/12/06 11:22:46;;;;;;;11.68;3.20;;;2.50;99.90;;;;;;5066055;28;20071;-79
2023/12/06 11:25:13;;;;;;;6.50;3.63;;;2.60;99.90;;;;;;5092010;28;20051;-79
2023/12/06 11:27:41;;;;;;;5.07;3.25;;;2.60;99.90;;;;;;5090157;28;20378;-79
2023/12/06 11:30:18;;;;;;;6.88;3.08;;;2.60;99.90;;;;;;5091109;28;20047;-79
2023/12/06 11:32:44;;;;;;;6.55;2.92;;;2.60;99.90;;;;;;5092699;28;20035;-79
2023/12/06 11:35:11;;;;;;;5.18;2.92;;;2.60;99.90;;;;;;5073002;28;20394;-79
2023/12/06 11:37:36;;;;;;;5.88;3.85;;;2.70;99.90;;;;;;5081774;28;20040;-79
2023/12/06 11:40:18;;;;;;;5.70;2.97;;;2.60;99.90;;;;;;5095557;27;20044;-79
2023/12/06 11:42:55;;;;;;;5.78;2.47;;;2.60;99.90;;;;;;5065480;28;20032;-80
2023/12/06 11:45:27;;;;;;;7.07;3.03;;;2.60;99.90;;;;;;5079381;28;20032;-79
2023/12/06 11:47:53;;;;;;;5.50;2.42;;;2.70;99.90;;;;;;5087945;28;20123;-80
2023/12/06 11:50:21;;;;;;;5.20;2.55;;;2.70;99.90;;;;;;5084898;28;20142;-79
2023/12/06 11:53:04;;;;;;;7.18;3.03;;;2.70;99.90;;;;;;5086376;28;20127;-80
2023/12/06 11:55:30;;;;;;;3.38;2.85;;;2.70;99.90;;;;;;5080468;28;20032;-79
2023/12/06 11:58:00;;;;;;;4.47;2.58;;;2.70;99.90;;;;;;5080012;28;20265;-78
2023/12/06 12:00:27;;;;;;;7.47;3.55;;;2.70;99.90;;;;;;5077217;28;20032;-78
2023/12/06 12:02:54;;;;;;;6.10;3.10;;;2.70;99.90;;;;;;5067420;28;20118;-79
2023/12/06 12:05:20;;;;;;;4.13;1.95;;;2.70;99.90;;;;;;5078107;28;20137;-79
2023/12/06 12:07:46;;;;;;;3.63;2.15;;;2.70;99.90;;;;;;5078942;28;20485;-79
2023/12/06 12:10:12;;;;;;;3.50;1.73;;;2.80;99.90;;;;;;5088391;28;20043;-78
2023/12/06 12:12:38;;;;;;;5.95;2.90;;;2.80;99.90;;;;;;5086588;28;20427;-79
2023/12/06 12:15:04;;;;;;;5.40;2.58;;;2.80;99.90;;;;;;5098735;28;20093;-79
2023/12/06 12:17:30;;;;;;;6.63;3.03;;;2.80;99.90;;;;;;5087633;28;20052;-78
2023/12/06 12:19:56;;;;;;;7.95;3.25;;;2.80;99.90;;;;;;5087209;28;20561;-79
2023/12/06 12:22:23;;;;;;;5.97;2.63;;;2.80;99.90;;;;;;5099181;28;20048;-79
2023/12/06 12:24:51;;;;;;;5.57;2.55;;;2.80;99.90;;;;;;5068311;28;20096;-79
2023/12/06 12:27:18;;;;;;;5.30;3.13;;;2.80;99.90;;;;;;5083863;28;20447;-79
2023/12/06 12:29:44;;;;;;;3.75;2.17;;;2.80;99.90;;;;;;5079481;28;20040;-82
2023/12/06 12:32:11;;;;;;;5.03;2.38;;;2.80;99.90;;;;;;5073254;28;20039;-79
2023/12/06 12:34:37;;;;;;;6.50;2.47;;;2.80;99.90;;;;;;5083525;28;20050;-78
2023/12/06 12:37:04;;;;;;;6.75;3.25;;;2.90;99.90;;;;;;5067853;28;20044;-79
2023/12/06 12:39:31;;;;;;;6.43;2.97;;;2.80;99.90;;;;;;5068920;28;20433;-80
2023/12/06 12:41:56;;;;;;;4.82;2.58;;;2.80;99.90;;;;;;5077257;28;20085;-79
2023/12/06 12:44:22;;;;;;;7.55;3.03;;;2.80;99.90;;;;;;5083075;28;20121;-79
2023/12/06 12:46:49;;;;;;;3.78;2.60;;;2.90;99.90;;;;;;5096347;28;20119;-80
2023/12/06 12:49:15;;;;;;;5.20;2.55;;;2.90;99.90;;;;;;5078733;28;20040;-79